sensor_id;sensor_type;location;lat;lon;timestamp;P1;durP1;ratioP1;P2;durP2;ratioP2
70342;SDS011;57767;42.068;24.752;2022-08-19T00:00:22;12.85;;;6.85;;
70342;SDS011;57767;42.068;24.752;2022-08-19T00:01:25;8.75;;;6.72;;
70342;SDS011;57767;42.068;24.752;2022-08-19T00:02:30;9.20;;;7.10;;
70342;SDS011;57767;42.068;24.752;2022-08-19T00:03:32;9.02;;;7.50;;
70342;SDS011;57767;42.068;24.752;2022-08-19T00:04:34;14.07;;;7.80;;
70342;SDS011;57767;42.068;24.752;2022-08-19T00:05:38;11.20;;;7.82;;
70342;SDS011;57767;42.068;24.752;2022-08-19T00:06:40;10.52;;;8.10;;
70342;SDS011;57767;42.068;24.752;2022-08-19T00:07:44;11.25;;;7.57;;
70342;SDS011;57767;42.068;24.752;2022-08-19T00:08:46;10.43;;;7.32;;
70342;SDS011;57767;42.068;24.752;2022-08-19T00:09:48;13.80;;;7.38;;
70342;SDS011;57767;42.068;24.752;2022-08-19T00:10:50;10.02;;;7.53;;
70342;SDS011;57767;42.068;24.752;2022-08-19T00:11:52;11.73;;;7.88;;
70342;SDS011;57767;42.068;24.752;2022-08-19T00:12:56;11.45;;;7.15;;
70342;SDS011;57767;42.068;24.752;2022-08-19T00:13:58;10.27;;;7.80;;
70342;SDS011;57767;42.068;24.752;2022-08-19T00:15:00;7.70;;;6.85;;
70342;SDS011;57767;42.068;24.752;2022-08-19T00:16:02;12.18;;;7.80;;
70342;SDS011;57767;42.068;24.752;2022-08-19T00:17:05;9.00;;;7.45;;
70342;SDS011;57767;42.068;24.752;2022-08-19T00:18:07;9.68;;;7.30;;
70342;SDS011;57767;42.068;24.752;2022-08-19T00:19:09;9.90;;;7.22;;
70342;SDS011;57767;42.068;24.752;2022-08-19T00:20:12;7.53;;;6.70;;
70342;SDS011;57767;42.068;24.752;2022-08-19T00:21:18;7.65;;;6.45;;
70342;SDS011;57767;42.068;24.752;2022-08-19T00:22:20;9.25;;;7.38;;
70342;SDS011;57767;42.068;24.752;2022-08-19T00:23:22;9.52;;;7.18;;
70342;SDS011;57767;42.068;24.752;2022-08-19T00:24:24;11.35;;;7.10;;
70342;SDS011;57767;42.068;24.752;2022-08-19T00:25:25;7.85;;;7.05;;
70342;SDS011;57767;42.068;24.752;2022-08-19T00:26:30;10.80;;;7.50;;
70342;SDS011;57767;42.068;24.752;2022-08-19T00:27:32;10.82;;;6.47;;
70342;SDS011;57767;42.068;24.752;2022-08-19T00:28:35;11.05;;;6.80;;
70342;SDS011;57767;42.068;24.752;2022-08-19T00:29:37;7.97;;;7.18;;
70342;SDS011;57767;42.068;24.752;2022-08-19T00:30:39;10.73;;;7.20;;
70342;SDS011;57767;42.068;24.752;2022-08-19T00:31:42;8.45;;;6.95;;
70342;SDS011;57767;42.068;24.752;2022-08-19T00:32:45;10.25;;;6.82;;
70342;SDS011;57767;42.068;24.752;2022-08-19T00:33:46;8.60;;;7.30;;
70342;SDS011;57767;42.068;24.752;2022-08-19T00:34:50;11.25;;;7.78;;
70342;SDS011;57767;42.068;24.752;2022-08-19T00:35:55;9.27;;;7.20;;
70342;SDS011;57767;42.068;24.752;2022-08-19T00:36:57;10.93;;;6.53;;
70342;SDS011;57767;42.068;24.752;2022-08-19T00:37:59;9.32;;;7.38;;
70342;SDS011;57767;42.068;24.752;2022-08-19T00:39:01;9.88;;;7.25;;
70342;SDS011;57767;42.068;24.752;2022-08-19T00:40:04;9.55;;;7.63;;
70342;SDS011;57767;42.068;24.752;2022-08-19T00:41:07;9.07;;;6.70;;
70342;SDS011;57767;42.068;24.752;2022-08-19T00:42:18;8.75;;;6.68;;
70342;SDS011;57767;42.068;24.752;2022-08-19T00:43:22;13.25;;;6.80;;
70342;SDS011;57767;42.068;24.752;2022-08-19T00:44:27;8.65;;;6.78;;
70342;SDS011;57767;42.068;24.752;2022-08-19T00:45:31;10.80;;;7.57;;
70342;SDS011;57767;42.068;24.752;2022-08-19T00:46:37;8.85;;;7.10;;
70342;SDS011;57767;42.068;24.752;2022-08-19T00:47:41;10.65;;;7.00;;
70342;SDS011;57767;42.068;24.752;2022-08-19T00:48:43;8.85;;;6.78;;
70342;SDS011;57767;42.068;24.752;2022-08-19T00:49:46;9.57;;;7.18;;
70342;SDS011;57767;42.068;24.752;2022-08-19T00:50:54;7.55;;;6.78;;
70342;SDS011;57767;42.068;24.752;2022-08-19T00:51:59;7.93;;;6.78;;
70342;SDS011;57767;42.068;24.752;2022-08-19T00:53:05;9.32;;;6.85;;
70342;SDS011;57767;42.068;24.752;2022-08-19T00:54:08;7.47;;;6.78;;
70342;SDS011;57767;42.068;24.752;2022-08-19T00:55:13;8.75;;;7.20;;
70342;SDS011;57767;42.068;24.752;2022-08-19T00:56:23;7.78;;;6.82;;
70342;SDS011;57767;42.068;24.752;2022-08-19T00:57:27;8.85;;;7.00;;
70342;SDS011;57767;42.068;24.752;2022-08-19T00:58:32;7.45;;;6.75;;
70342;SDS011;57767;42.068;24.752;2022-08-19T00:59:36;12.32;;;6.90;;
70342;SDS011;57767;42.068;24.752;2022-08-19T01:01:02;8.18;;;7.20;;
70342;SDS011;57767;42.068;24.752;2022-08-19T01:02:05;8.68;;;6.97;;
70342;SDS011;57767;42.068;24.752;2022-08-19T01:03:09;8.02;;;6.65;;
70342;SDS011;57767;42.068;24.752;2022-08-19T01:04:13;10.18;;;6.88;;
70342;SDS011;57767;42.068;24.752;2022-08-19T01:05:17;8.10;;;6.65;;
70342;SDS011;57767;42.068;24.752;2022-08-19T01:06:22;9.27;;;6.88;;
70342;SDS011;57767;42.068;24.752;2022-08-19T01:07:24;8.13;;;7.28;;
70342;SDS011;57767;42.068;24.752;2022-08-19T01:08:26;7.55;;;6.68;;
70342;SDS011;57767;42.068;24.752;2022-08-19T01:09:28;9.50;;;7.25;;
70342;SDS011;57767;42.068;24.752;2022-08-19T01:10:33;10.48;;;6.65;;
70342;SDS011;57767;42.068;24.752;2022-08-19T01:11:41;8.52;;;6.97;;
70342;SDS011;57767;42.068;24.752;2022-08-19T01:12:45;7.82;;;7.05;;
70342;SDS011;57767;42.068;24.752;2022-08-19T01:13:48;9.45;;;6.28;;
70342;SDS011;57767;42.068;24.752;2022-08-19T01:14:51;10.23;;;6.82;;
70342;SDS011;57767;42.068;24.752;2022-08-19T01:15:55;8.60;;;6.45;;
70342;SDS011;57767;42.068;24.752;2022-08-19T01:17:00;10.07;;;6.15;;
70342;SDS011;57767;42.068;24.752;2022-08-19T01:18:07;11.05;;;6.93;;
70342;SDS011;57767;42.068;24.752;2022-08-19T01:19:12;7.53;;;6.05;;
70342;SDS011;57767;42.068;24.752;2022-08-19T01:20:22;8.73;;;6.70;;
70342;SDS011;57767;42.068;24.752;2022-08-19T01:21:32;7.57;;;6.75;;
70342;SDS011;57767;42.068;24.752;2022-08-19T01:22:42;9.65;;;6.53;;
70342;SDS011;57767;42.068;24.752;2022-08-19T01:23:49;8.10;;;6.15;;
70342;SDS011;57767;42.068;24.752;2022-08-19T01:24:51;7.82;;;6.80;;
70342;SDS011;57767;42.068;24.752;2022-08-19T01:25:55;8.68;;;6.53;;
70342;SDS011;57767;42.068;24.752;2022-08-19T01:26:59;7.28;;;6.50;;
70342;SDS011;57767;42.068;24.752;2022-08-19T01:28:01;9.98;;;7.10;;
70342;SDS011;57767;42.068;24.752;2022-08-19T01:29:11;8.25;;;6.88;;
70342;SDS011;57767;42.068;24.752;2022-08-19T01:30:16;6.43;;;5.90;;
70342;SDS011;57767;42.068;24.752;2022-08-19T01:31:23;8.90;;;6.82;;
70342;SDS011;57767;42.068;24.752;2022-08-19T01:32:28;7.05;;;6.32;;
70342;SDS011;57767;42.068;24.752;2022-08-19T01:33:34;7.20;;;6.43;;
70342;SDS011;57767;42.068;24.752;2022-08-19T01:34:36;9.10;;;6.50;;
70342;SDS011;57767;42.068;24.752;2022-08-19T01:35:37;9.02;;;7.00;;
70342;SDS011;57767;42.068;24.752;2022-08-19T01:36:43;9.88;;;6.50;;
70342;SDS011;57767;42.068;24.752;2022-08-19T01:37:53;7.80;;;6.38;;
70342;SDS011;57767;42.068;24.752;2022-08-19T01:38:55;8.30;;;6.70;;
70342;SDS011;57767;42.068;24.752;2022-08-19T01:39:59;7.95;;;6.38;;
70342;SDS011;57767;42.068;24.752;2022-08-19T01:41:01;7.35;;;6.20;;
70342;SDS011;57767;42.068;24.752;2022-08-19T01:42:11;8.27;;;6.00;;
70342;SDS011;57767;42.068;24.752;2022-08-19T01:43:13;10.50;;;6.50;;
70342;SDS011;57767;42.068;24.752;2022-08-19T01:44:16;7.38;;;6.20;;
70342;SDS011;57767;42.068;24.752;2022-08-19T01:45:22;7.03;;;5.95;;
70342;SDS011;57767;42.068;24.752;2022-08-19T01:46:26;7.78;;;6.50;;
70342;SDS011;57767;42.068;24.752;2022-08-19T01:47:28;9.63;;;6.28;;
70342;SDS011;57767;42.068;24.752;2022-08-19T01:48:37;8.10;;;6.57;;
70342;SDS011;57767;42.068;24.752;2022-08-19T01:49:41;10.43;;;6.07;;
70342;SDS011;57767;42.068;24.752;2022-08-19T01:50:43;10.10;;;6.20;;
70342;SDS011;57767;42.068;24.752;2022-08-19T01:51:44;8.00;;;6.30;;
70342;SDS011;57767;42.068;24.752;2022-08-19T01:52:47;8.20;;;6.43;;
70342;SDS011;57767;42.068;24.752;2022-08-19T01:54:02;8.35;;;6.20;;
70342;SDS011;57767;42.068;24.752;2022-08-19T01:55:05;9.02;;;6.07;;
70342;SDS011;57767;42.068;24.752;2022-08-19T01:56:08;7.60;;;5.80;;
70342;SDS011;57767;42.068;24.752;2022-08-19T01:57:11;9.90;;;6.50;;
70342;SDS011;57767;42.068;24.752;2022-08-19T01:58:16;9.48;;;6.53;;
70342;SDS011;57767;42.068;24.752;2022-08-19T01:59:24;13.10;;;6.20;;
70342;SDS011;57767;42.068;24.752;2022-08-19T02:00:26;9.75;;;6.43;;
70342;SDS011;57767;42.068;24.752;2022-08-19T02:01:30;9.02;;;6.78;;
70342;SDS011;57767;42.068;24.752;2022-08-19T02:02:33;7.28;;;6.30;;
70342;SDS011;57767;42.068;24.752;2022-08-19T02:03:35;7.93;;;6.43;;
70342;SDS011;57767;42.068;24.752;2022-08-19T02:04:37;10.60;;;6.13;;
70342;SDS011;57767;42.068;24.752;2022-08-19T02:05:40;6.90;;;6.03;;
70342;SDS011;57767;42.068;24.752;2022-08-19T02:06:43;10.05;;;6.47;;
70342;SDS011;57767;42.068;24.752;2022-08-19T02:07:45;8.77;;;7.05;;
70342;SDS011;57767;42.068;24.752;2022-08-19T02:08:47;6.65;;;6.05;;
70342;SDS011;57767;42.068;24.752;2022-08-19T02:09:51;7.32;;;6.57;;
70342;SDS011;57767;42.068;24.752;2022-08-19T02:10:53;7.10;;;6.20;;
70342;SDS011;57767;42.068;24.752;2022-08-19T02:11:55;10.93;;;6.60;;
70342;SDS011;57767;42.068;24.752;2022-08-19T02:12:57;9.60;;;6.68;;
70342;SDS011;57767;42.068;24.752;2022-08-19T02:14:01;8.18;;;6.20;;
70342;SDS011;57767;42.068;24.752;2022-08-19T02:15:05;9.10;;;6.07;;
70342;SDS011;57767;42.068;24.752;2022-08-19T02:16:08;7.95;;;6.30;;
70342;SDS011;57767;42.068;24.752;2022-08-19T02:17:11;12.88;;;6.38;;
70342;SDS011;57767;42.068;24.752;2022-08-19T02:18:13;10.65;;;6.78;;
70342;SDS011;57767;42.068;24.752;2022-08-19T02:19:15;11.15;;;6.93;;
70342;SDS011;57767;42.068;24.752;2022-08-19T02:20:17;12.77;;;6.90;;
70342;SDS011;57767;42.068;24.752;2022-08-19T02:21:19;13.55;;;6.90;;
70342;SDS011;57767;42.068;24.752;2022-08-19T02:22:23;11.13;;;7.45;;
70342;SDS011;57767;42.068;24.752;2022-08-19T02:23:26;10.35;;;7.00;;
70342;SDS011;57767;42.068;24.752;2022-08-19T02:24:28;12.85;;;7.35;;
70342;SDS011;57767;42.068;24.752;2022-08-19T02:25:30;8.60;;;6.68;;
70342;SDS011;57767;42.068;24.752;2022-08-19T02:26:32;8.65;;;6.63;;
70342;SDS011;57767;42.068;24.752;2022-08-19T02:27:34;9.15;;;7.20;;
70342;SDS011;57767;42.068;24.752;2022-08-19T02:28:36;10.90;;;6.93;;
70342;SDS011;57767;42.068;24.752;2022-08-19T02:29:38;7.55;;;6.75;;
70342;SDS011;57767;42.068;24.752;2022-08-19T02:30:40;11.07;;;6.70;;
70342;SDS011;57767;42.068;24.752;2022-08-19T02:31:42;8.15;;;6.50;;
70342;SDS011;57767;42.068;24.752;2022-08-19T02:32:44;8.45;;;6.05;;
70342;SDS011;57767;42.068;24.752;2022-08-19T02:33:46;8.70;;;6.65;;
70342;SDS011;57767;42.068;24.752;2022-08-19T02:34:49;11.65;;;6.20;;
70342;SDS011;57767;42.068;24.752;2022-08-19T02:35:50;8.32;;;6.80;;
70342;SDS011;57767;42.068;24.752;2022-08-19T02:36:52;13.02;;;6.88;;
70342;SDS011;57767;42.068;24.752;2022-08-19T02:37:54;10.25;;;7.25;;
70342;SDS011;57767;42.068;24.752;2022-08-19T02:39:14;8.07;;;6.32;;
70342;SDS011;57767;42.068;24.752;2022-08-19T02:40:16;8.45;;;6.68;;
70342;SDS011;57767;42.068;24.752;2022-08-19T02:41:20;8.07;;;6.85;;
70342;SDS011;57767;42.068;24.752;2022-08-19T02:42:27;8.02;;;6.80;;
70342;SDS011;57767;42.068;24.752;2022-08-19T02:43:29;11.65;;;6.93;;
70342;SDS011;57767;42.068;24.752;2022-08-19T02:44:34;9.52;;;7.38;;
70342;SDS011;57767;42.068;24.752;2022-08-19T02:45:37;9.20;;;7.10;;
70342;SDS011;57767;42.068;24.752;2022-08-19T02:46:42;9.55;;;7.03;;
70342;SDS011;57767;42.068;24.752;2022-08-19T02:47:46;8.27;;;7.47;;
70342;SDS011;57767;42.068;24.752;2022-08-19T02:48:51;11.45;;;7.35;;
70342;SDS011;57767;42.068;24.752;2022-08-19T02:49:54;14.20;;;7.82;;
70342;SDS011;57767;42.068;24.752;2022-08-19T02:50:56;13.43;;;8.02;;
70342;SDS011;57767;42.068;24.752;2022-08-19T02:51:58;8.10;;;6.65;;
70342;SDS011;57767;42.068;24.752;2022-08-19T02:53:00;10.23;;;7.15;;
70342;SDS011;57767;42.068;24.752;2022-08-19T02:54:02;9.73;;;7.30;;
70342;SDS011;57767;42.068;24.752;2022-08-19T02:55:05;8.38;;;7.20;;
70342;SDS011;57767;42.068;24.752;2022-08-19T02:56:07;10.68;;;7.38;;
70342;SDS011;57767;42.068;24.752;2022-08-19T02:57:09;10.32;;;6.57;;
70342;SDS011;57767;42.068;24.752;2022-08-19T02:58:12;15.30;;;6.82;;
70342;SDS011;57767;42.068;24.752;2022-08-19T02:59:15;9.98;;;6.93;;
70342;SDS011;57767;42.068;24.752;2022-08-19T03:00:17;10.57;;;7.05;;
70342;SDS011;57767;42.068;24.752;2022-08-19T03:01:29;12.35;;;6.68;;
70342;SDS011;57767;42.068;24.752;2022-08-19T03:02:32;9.80;;;6.43;;
70342;SDS011;57767;42.068;24.752;2022-08-19T03:03:34;8.75;;;6.45;;
70342;SDS011;57767;42.068;24.752;2022-08-19T03:04:36;9.00;;;6.55;;
70342;SDS011;57767;42.068;24.752;2022-08-19T03:05:38;9.18;;;6.35;;
70342;SDS011;57767;42.068;24.752;2022-08-19T03:06:57;12.75;;;6.68;;
70342;SDS011;57767;42.068;24.752;2022-08-19T03:08:11;11.73;;;7.00;;
70342;SDS011;57767;42.068;24.752;2022-08-19T03:09:14;9.82;;;7.03;;
70342;SDS011;57767;42.068;24.752;2022-08-19T03:10:16;9.05;;;7.13;;
70342;SDS011;57767;42.068;24.752;2022-08-19T03:11:25;10.70;;;6.82;;
70342;SDS011;57767;42.068;24.752;2022-08-19T03:12:29;8.65;;;7.30;;
70342;SDS011;57767;42.068;24.752;2022-08-19T03:13:31;9.30;;;6.20;;
70342;SDS011;57767;42.068;24.752;2022-08-19T03:14:34;9.50;;;6.22;;
70342;SDS011;57767;42.068;24.752;2022-08-19T03:15:38;8.00;;;5.97;;
70342;SDS011;57767;42.068;24.752;2022-08-19T03:16:43;15.40;;;6.85;;
70342;SDS011;57767;42.068;24.752;2022-08-19T03:17:49;15.70;;;7.60;;
70342;SDS011;57767;42.068;24.752;2022-08-19T03:18:51;18.35;;;7.13;;
70342;SDS011;57767;42.068;24.752;2022-08-19T03:19:54;10.30;;;6.38;;
70342;SDS011;57767;42.068;24.752;2022-08-19T03:20:56;15.55;;;7.00;;
70342;SDS011;57767;42.068;24.752;2022-08-19T03:21:58;17.30;;;7.13;;
70342;SDS011;57767;42.068;24.752;2022-08-19T03:23:00;13.80;;;6.53;;
70342;SDS011;57767;42.068;24.752;2022-08-19T03:24:03;13.35;;;7.18;;
70342;SDS011;57767;42.068;24.752;2022-08-19T03:25:07;22.13;;;6.90;;
70342;SDS011;57767;42.068;24.752;2022-08-19T03:26:09;19.25;;;6.75;;
70342;SDS011;57767;42.068;24.752;2022-08-19T03:27:17;9.82;;;6.40;;
70342;SDS011;57767;42.068;24.752;2022-08-19T03:28:19;12.65;;;6.97;;
70342;SDS011;57767;42.068;24.752;2022-08-19T03:29:21;9.60;;;6.22;;
70342;SDS011;57767;42.068;24.752;2022-08-19T03:30:30;17.08;;;7.30;;
70342;SDS011;57767;42.068;24.752;2022-08-19T03:31:33;13.68;;;7.13;;
70342;SDS011;57767;42.068;24.752;2022-08-19T03:32:51;14.65;;;7.07;;
70342;SDS011;57767;42.068;24.752;2022-08-19T03:33:57;11.20;;;6.75;;
70342;SDS011;57767;42.068;24.752;2022-08-19T03:34:59;10.73;;;6.68;;
70342;SDS011;57767;42.068;24.752;2022-08-19T03:36:18;13.18;;;6.85;;
70342;SDS011;57767;42.068;24.752;2022-08-19T03:37:24;16.17;;;6.80;;
70342;SDS011;57767;42.068;24.752;2022-08-19T03:38:27;18.13;;;6.43;;
70342;SDS011;57767;42.068;24.752;2022-08-19T03:39:29;17.98;;;7.10;;
70342;SDS011;57767;42.068;24.752;2022-08-19T03:40:31;12.40;;;6.90;;
70342;SDS011;57767;42.068;24.752;2022-08-19T03:41:36;15.00;;;7.47;;
70342;SDS011;57767;42.068;24.752;2022-08-19T03:42:46;15.70;;;7.70;;
70342;SDS011;57767;42.068;24.752;2022-08-19T03:43:49;21.98;;;7.75;;
70342;SDS011;57767;42.068;24.752;2022-08-19T03:44:51;23.33;;;8.52;;
70342;SDS011;57767;42.068;24.752;2022-08-19T03:46:01;18.33;;;8.18;;
70342;SDS011;57767;42.068;24.752;2022-08-19T03:47:05;20.02;;;8.00;;
70342;SDS011;57767;42.068;24.752;2022-08-19T03:48:07;15.18;;;7.10;;
70342;SDS011;57767;42.068;24.752;2022-08-19T03:49:09;14.13;;;7.40;;
70342;SDS011;57767;42.068;24.752;2022-08-19T03:50:14;27.58;;;7.85;;
70342;SDS011;57767;42.068;24.752;2022-08-19T03:51:19;23.45;;;7.90;;
70342;SDS011;57767;42.068;24.752;2022-08-19T03:52:31;24.45;;;7.65;;
70342;SDS011;57767;42.068;24.752;2022-08-19T03:53:33;12.35;;;6.63;;
70342;SDS011;57767;42.068;24.752;2022-08-19T03:54:36;43.53;;;8.93;;
70342;SDS011;57767;42.068;24.752;2022-08-19T03:55:40;20.33;;;8.68;;
70342;SDS011;57767;42.068;24.752;2022-08-19T03:56:43;40.53;;;9.63;;
70342;SDS011;57767;42.068;24.752;2022-08-19T03:57:46;19.52;;;7.50;;
70342;SDS011;57767;42.068;24.752;2022-08-19T03:58:48;27.65;;;7.80;;
70342;SDS011;57767;42.068;24.752;2022-08-19T03:59:50;9.00;;;6.05;;
70342;SDS011;57767;42.068;24.752;2022-08-19T04:00:52;13.85;;;7.45;;
70342;SDS011;57767;42.068;24.752;2022-08-19T04:01:55;11.23;;;7.32;;
70342;SDS011;57767;42.068;24.752;2022-08-19T04:02:58;8.32;;;6.45;;
70342;SDS011;57767;42.068;24.752;2022-08-19T04:04:01;7.63;;;6.93;;
70342;SDS011;57767;42.068;24.752;2022-08-19T04:05:05;8.20;;;6.40;;
70342;SDS011;57767;42.068;24.752;2022-08-19T04:06:10;8.75;;;6.00;;
70342;SDS011;57767;42.068;24.752;2022-08-19T04:07:17;9.07;;;6.75;;
70342;SDS011;57767;42.068;24.752;2022-08-19T04:08:22;7.15;;;6.32;;
70342;SDS011;57767;42.068;24.752;2022-08-19T04:09:24;7.15;;;6.10;;
70342;SDS011;57767;42.068;24.752;2022-08-19T04:10:27;9.27;;;6.20;;
70342;SDS011;57767;42.068;24.752;2022-08-19T04:11:31;7.85;;;6.80;;
70342;SDS011;57767;42.068;24.752;2022-08-19T04:12:44;9.40;;;6.15;;
70342;SDS011;57767;42.068;24.752;2022-08-19T04:13:49;9.43;;;6.88;;
70342;SDS011;57767;42.068;24.752;2022-08-19T04:14:52;7.43;;;6.25;;
70342;SDS011;57767;42.068;24.752;2022-08-19T04:15:54;6.95;;;6.25;;
70342;SDS011;57767;42.068;24.752;2022-08-19T04:16:56;11.70;;;6.80;;
70342;SDS011;57767;42.068;24.752;2022-08-19T04:17:59;8.27;;;5.95;;
70342;SDS011;57767;42.068;24.752;2022-08-19T04:19:01;8.10;;;5.88;;
70342;SDS011;57767;42.068;24.752;2022-08-19T04:20:05;6.82;;;6.18;;
70342;SDS011;57767;42.068;24.752;2022-08-19T04:21:07;9.52;;;6.43;;
70342;SDS011;57767;42.068;24.752;2022-08-19T04:22:15;17.75;;;6.28;;
70342;SDS011;57767;42.068;24.752;2022-08-19T04:23:17;19.90;;;6.70;;
70342;SDS011;57767;42.068;24.752;2022-08-19T04:24:20;16.23;;;6.22;;
70342;SDS011;57767;42.068;24.752;2022-08-19T04:25:23;7.75;;;5.70;;
70342;SDS011;57767;42.068;24.752;2022-08-19T04:26:29;9.05;;;5.85;;
70342;SDS011;57767;42.068;24.752;2022-08-19T04:27:33;14.32;;;6.05;;
70342;SDS011;57767;42.068;24.752;2022-08-19T04:28:35;12.18;;;5.78;;
70342;SDS011;57767;42.068;24.752;2022-08-19T04:29:38;11.07;;;6.07;;
70342;SDS011;57767;42.068;24.752;2022-08-19T04:30:41;10.27;;;5.55;;
70342;SDS011;57767;42.068;24.752;2022-08-19T04:31:45;13.23;;;5.80;;
70342;SDS011;57767;42.068;24.752;2022-08-19T04:32:47;10.93;;;5.72;;
70342;SDS011;57767;42.068;24.752;2022-08-19T04:33:49;12.38;;;5.97;;
70342;SDS011;57767;42.068;24.752;2022-08-19T04:34:51;5.95;;;5.20;;
70342;SDS011;57767;42.068;24.752;2022-08-19T04:36:17;9.93;;;5.88;;
70342;SDS011;57767;42.068;24.752;2022-08-19T04:37:24;14.57;;;5.85;;
70342;SDS011;57767;42.068;24.752;2022-08-19T04:38:36;8.65;;;5.60;;
70342;SDS011;57767;42.068;24.752;2022-08-19T04:39:38;10.10;;;6.15;;
70342;SDS011;57767;42.068;24.752;2022-08-19T04:41:02;7.43;;;5.53;;
70342;SDS011;57767;42.068;24.752;2022-08-19T04:42:23;14.23;;;5.88;;
70342;SDS011;57767;42.068;24.752;2022-08-19T04:43:40;9.40;;;5.47;;
70342;SDS011;57767;42.068;24.752;2022-08-19T04:44:42;6.60;;;5.72;;
70342;SDS011;57767;42.068;24.752;2022-08-19T04:45:46;6.93;;;5.60;;
70342;SDS011;57767;42.068;24.752;2022-08-19T04:46:49;8.43;;;5.65;;
70342;SDS011;57767;42.068;24.752;2022-08-19T04:47:54;11.32;;;5.97;;
70342;SDS011;57767;42.068;24.752;2022-08-19T04:49:19;10.32;;;6.10;;
70342;SDS011;57767;42.068;24.752;2022-08-19T04:50:24;14.68;;;5.78;;
70342;SDS011;57767;42.068;24.752;2022-08-19T04:51:27;8.95;;;6.03;;
70342;SDS011;57767;42.068;24.752;2022-08-19T04:52:28;13.90;;;5.70;;
70342;SDS011;57767;42.068;24.752;2022-08-19T04:53:33;16.15;;;5.68;;
70342;SDS011;57767;42.068;24.752;2022-08-19T04:54:38;16.17;;;5.93;;
70342;SDS011;57767;42.068;24.752;2022-08-19T04:55:41;30.45;;;6.55;;
70342;SDS011;57767;42.068;24.752;2022-08-19T04:56:43;20.33;;;6.57;;
70342;SDS011;57767;42.068;24.752;2022-08-19T04:57:45;26.05;;;6.82;;
70342;SDS011;57767;42.068;24.752;2022-08-19T04:58:47;26.60;;;7.35;;
70342;SDS011;57767;42.068;24.752;2022-08-19T04:59:53;22.60;;;6.30;;
70342;SDS011;57767;42.068;24.752;2022-08-19T05:00:55;28.27;;;6.93;;
70342;SDS011;57767;42.068;24.752;2022-08-19T05:01:57;30.58;;;7.45;;
70342;SDS011;57767;42.068;24.752;2022-08-19T05:02:59;54.83;;;8.05;;
70342;SDS011;57767;42.068;24.752;2022-08-19T05:04:03;88.50;;;8.75;;
70342;SDS011;57767;42.068;24.752;2022-08-19T05:05:07;36.20;;;7.13;;
70342;SDS011;57767;42.068;24.752;2022-08-19T05:06:10;23.15;;;6.38;;
70342;SDS011;57767;42.068;24.752;2022-08-19T05:07:13;16.05;;;5.93;;
70342;SDS011;57767;42.068;24.752;2022-08-19T05:08:16;15.93;;;6.32;;
70342;SDS011;57767;42.068;24.752;2022-08-19T05:09:31;15.65;;;7.13;;
70342;SDS011;57767;42.068;24.752;2022-08-19T05:10:53;13.02;;;5.93;;
70342;SDS011;57767;42.068;24.752;2022-08-19T05:11:55;9.02;;;5.93;;
70342;SDS011;57767;42.068;24.752;2022-08-19T05:12:57;14.65;;;6.55;;
70342;SDS011;57767;42.068;24.752;2022-08-19T05:13:58;11.52;;;6.45;;
70342;SDS011;57767;42.068;24.752;2022-08-19T05:15:01;10.90;;;6.45;;
70342;SDS011;57767;42.068;24.752;2022-08-19T05:16:04;10.55;;;6.28;;
70342;SDS011;57767;42.068;24.752;2022-08-19T05:17:06;8.88;;;6.13;;
70342;SDS011;57767;42.068;24.752;2022-08-19T05:18:28;8.85;;;5.80;;
70342;SDS011;57767;42.068;24.752;2022-08-19T05:19:48;9.70;;;6.50;;
70342;SDS011;57767;42.068;24.752;2022-08-19T05:21:12;10.32;;;5.78;;
70342;SDS011;57767;42.068;24.752;2022-08-19T05:22:34;12.98;;;5.93;;
70342;SDS011;57767;42.068;24.752;2022-08-19T05:23:36;12.82;;;5.93;;
70342;SDS011;57767;42.068;24.752;2022-08-19T05:24:39;20.38;;;6.00;;
70342;SDS011;57767;42.068;24.752;2022-08-19T05:26:01;10.38;;;5.78;;
70342;SDS011;57767;42.068;24.752;2022-08-19T05:27:03;8.07;;;5.90;;
70342;SDS011;57767;42.068;24.752;2022-08-19T05:28:06;10.10;;;5.97;;
70342;SDS011;57767;42.068;24.752;2022-08-19T05:29:08;8.82;;;5.82;;
70342;SDS011;57767;42.068;24.752;2022-08-19T05:30:11;8.30;;;5.80;;
70342;SDS011;57767;42.068;24.752;2022-08-19T05:31:13;7.05;;;5.65;;
70342;SDS011;57767;42.068;24.752;2022-08-19T05:32:15;10.50;;;5.75;;
70342;SDS011;57767;42.068;24.752;2022-08-19T05:33:17;8.73;;;5.90;;
70342;SDS011;57767;42.068;24.752;2022-08-19T05:34:20;17.20;;;6.03;;
70342;SDS011;57767;42.068;24.752;2022-08-19T05:35:25;7.10;;;6.03;;
70342;SDS011;57767;42.068;24.752;2022-08-19T05:36:28;11.20;;;5.68;;
70342;SDS011;57767;42.068;24.752;2022-08-19T05:37:34;9.02;;;5.57;;
70342;SDS011;57767;42.068;24.752;2022-08-19T05:38:36;12.50;;;5.90;;
70342;SDS011;57767;42.068;24.752;2022-08-19T05:39:38;7.57;;;5.88;;
70342;SDS011;57767;42.068;24.752;2022-08-19T05:40:40;12.25;;;5.88;;
70342;SDS011;57767;42.068;24.752;2022-08-19T05:41:46;11.98;;;6.10;;
70342;SDS011;57767;42.068;24.752;2022-08-19T05:42:54;27.50;;;6.50;;
70342;SDS011;57767;42.068;24.752;2022-08-19T05:43:56;12.02;;;5.55;;
70342;SDS011;57767;42.068;24.752;2022-08-19T05:44:58;9.07;;;5.75;;
70342;SDS011;57767;42.068;24.752;2022-08-19T05:46:00;7.97;;;5.75;;
70342;SDS011;57767;42.068;24.752;2022-08-19T05:47:03;8.25;;;5.93;;
70342;SDS011;57767;42.068;24.752;2022-08-19T05:48:06;10.75;;;6.00;;
70342;SDS011;57767;42.068;24.752;2022-08-19T05:49:08;6.90;;;5.50;;
70342;SDS011;57767;42.068;24.752;2022-08-19T05:50:10;7.25;;;5.80;;
70342;SDS011;57767;42.068;24.752;2022-08-19T05:51:12;10.73;;;5.95;;
70342;SDS011;57767;42.068;24.752;2022-08-19T05:52:18;6.25;;;5.65;;
70342;SDS011;57767;42.068;24.752;2022-08-19T05:53:26;8.57;;;5.60;;
70342;SDS011;57767;42.068;24.752;2022-08-19T05:54:28;9.00;;;5.60;;
70342;SDS011;57767;42.068;24.752;2022-08-19T05:55:30;9.07;;;5.07;;
70342;SDS011;57767;42.068;24.752;2022-08-19T05:56:32;9.85;;;5.68;;
70342;SDS011;57767;42.068;24.752;2022-08-19T05:57:36;7.20;;;5.55;;
70342;SDS011;57767;42.068;24.752;2022-08-19T05:58:40;11.05;;;6.03;;
70342;SDS011;57767;42.068;24.752;2022-08-19T05:59:43;9.30;;;5.55;;
70342;SDS011;57767;42.068;24.752;2022-08-19T06:00:47;10.70;;;5.22;;
70342;SDS011;57767;42.068;24.752;2022-08-19T06:01:49;5.90;;;5.32;;
70342;SDS011;57767;42.068;24.752;2022-08-19T06:02:56;10.32;;;5.85;;
70342;SDS011;57767;42.068;24.752;2022-08-19T06:04:09;10.70;;;5.75;;
70342;SDS011;57767;42.068;24.752;2022-08-19T06:05:11;8.10;;;5.80;;
70342;SDS011;57767;42.068;24.752;2022-08-19T06:06:13;11.90;;;5.45;;
70342;SDS011;57767;42.068;24.752;2022-08-19T06:07:17;7.45;;;5.65;;
70342;SDS011;57767;42.068;24.752;2022-08-19T06:08:19;11.02;;;5.38;;
70342;SDS011;57767;42.068;24.752;2022-08-19T06:09:34;11.70;;;5.70;;
70342;SDS011;57767;42.068;24.752;2022-08-19T06:10:36;7.75;;;5.68;;
70342;SDS011;57767;42.068;24.752;2022-08-19T06:11:45;12.60;;;5.15;;
70342;SDS011;57767;42.068;24.752;2022-08-19T06:12:53;13.55;;;5.38;;
70342;SDS011;57767;42.068;24.752;2022-08-19T06:13:55;15.18;;;5.90;;
70342;SDS011;57767;42.068;24.752;2022-08-19T06:15:01;10.02;;;5.95;;
70342;SDS011;57767;42.068;24.752;2022-08-19T06:16:05;12.07;;;5.28;;
70342;SDS011;57767;42.068;24.752;2022-08-19T06:17:07;7.18;;;5.50;;
70342;SDS011;57767;42.068;24.752;2022-08-19T06:18:09;16.17;;;5.95;;
70342;SDS011;57767;42.068;24.752;2022-08-19T06:19:12;11.57;;;5.47;;
70342;SDS011;57767;42.068;24.752;2022-08-19T06:20:17;9.30;;;5.35;;